АЭРОПОРТ UH - фактическая погода и прогноз погоды.
И опыт, сын ошибок трудных, и гений, парадоксов друг, и случай, Бог-изобретатель...
Поиск по сайту - введите термин или город:

UH - фактическая погода и прогноз

Исходный текст погоды публикуется в том виде, как они передан метеослужбой аэропорта во всемирную сеть обмена метеоинформацией. Раскодирование (русский текст) прогнозов погоды произведено на сервере Метеоцентр. В ряде случаев помимо прогноза погоды передаётся и сообщение о фактической погоде аэропорта (время, как и в прогнозах - всемирное, для получения московского зимнего времени нужно прибавить 3 часа).

Внимание! Данная информация предоставляется исключительно для личного использования в информационных и некоммерческих целях, и НЕ может быть использована в предполётной подготовке экипажей воздушных судов.

UH - метеоусловия



METAR UHBB 191900Z 26001MPS CAVOK M28/M29 Q1023 R36/410260 NOSIG RMK QFE750/1000

TAF UHBB 191635Z 1918/2018 VRB01MPS CAVOK
BECMG 1921/1923 33003MPS

METAR UHHH 191900Z 00000MPS CAVOK M21/M23 Q1021 R23L/820355 NOSIG RMK QFE759/1012

TAF UHHH 191647Z 1918/2024 27003MPS 9999 SCT030CB
TEMPO 1918/1923 2000 SHSN BR SCT008 SCT020CB
FM200100 27003MPS 9999 SCT020

METAR UHMA 191900Z 02005MPS CAVOK M30/M33 Q1011 RMK QFE755/1006

TAF UHMA 191653Z 1918/2018 36006MPS 9999 NSC
TEMPO 1918/2018 34006MPS 2000 BR FEW006

METAR UHMM 191900Z 00000MPS 9999 NSC M35/M38 Q1016 RMK QFE747

TAF UHMM 191650Z 1918/2024 09003MPS 9999 BKN070

METAR UHPP 191900Z 01005MPS 9999 NSC M22/M27 Q1017 R34L/710260 NOSIG RMK QFE759/1013

TAF UHPP 191644Z 1918/2024 01003G10MPS 9999 NSC TXM12/2004Z TNM27/1919Z
FM200300 36003G12MPS 9999 SCT030CB BKN040

METAR UHSS 191900Z 09001MPS 6000 2600N -SHSN BKN040CB M10/M11 Q1015 R01/490542 NOSIG RMK QFE760/1013

TAF UHSS 191700Z 1918/2024 04003MPS 5000 -SHSN BKN020CB BKN100
TEMPO 1918/2009 0700 +SHSN BKN006 BKN015CB
BECMG 2009/2011 9999 BKN030CB

METAR UHWW 191900Z 33004MPS 7000 NSC M13/M18 Q1021 R25L/0///70 NOSIG RMK QFE764

TAF UHWW 191655Z 1918/2018 35003MPS 2100 HZ BKN007 BKN012CB
FM200300 36003MPS 9999 BKN020CB
TEMPO 2003/2012 35007G12MPS


Фактическая погода UHBB 191900Z
ветер 260 - 01 м/с условия хорошие темп-ра -28 точка росы -29 Pмин 1023 гПа R36/410260
в ближайшие 2 часа без изменений
дополнительная информация: Ро 750 /1000

Прогноз погоды UHBB 191635Z 1918/2018
ветер неустойчивый - 01 м/с условия хорошие
изменение 1921/1923
ветер 330 - 03 м/с

Фактическая погода UHHH 191900Z
ветер 000 - 00 м/с условия хорошие темп-ра -21 точка росы -23 Pмин 1021 гПа R23L/820355
в ближайшие 2 часа без изменений
дополнительная информация: Ро 759 /1012

Прогноз погоды UHHH 191647Z 1918/2024
ветер 270 - 03 м/с вид. 10 км обл. разбросанная 900 м кучево-дождевая
временами 1918/1923 вид. 2000 м ливневой снег дымка обл. разбросанная 240 м обл. разбросанная 600 м кучево-дождевая
от 200100
ветер 270 - 03 м/с вид. 10 км обл. разбросанная 600 м

Фактическая погода UHMA 191900Z
ветер 020 - 05 м/с условия хорошие темп-ра -30 точка росы -33 Pмин 1011 гПа
дополнительная информация: Ро 755 /1006

Прогноз погоды UHMA 191653Z 1918/2018
ветер 360 - 06 м/с вид. 10 км нет существенной облачности
временами 1918/2018
ветер 340 - 06 м/с вид. 2000 м дымка обл. отдельная 180 м

Фактическая погода UHMM 191900Z
ветер 000 - 00 м/с вид. 10 км нет существенной облачности темп-ра -35 точка росы -38 Pмин 1016 гПа
дополнительная информация: Ро 747

Прогноз погоды UHMM 191650Z 1918/2024
ветер 090 - 03 м/с вид. 10 км обл. значительная 2100 м

Фактическая погода UHPP 191900Z
ветер 010 - 05 м/с вид. 10 км нет существенной облачности темп-ра -22 точка росы -27 Pмин 1017 гПа R34L/710260
в ближайшие 2 часа без изменений
дополнительная информация: Ро 759 /1013

Прогноз погоды UHPP 191644Z 1918/2024
ветер 010 - 03 порывы 10 м/с вид. 10 км нет существенной облачности TXM12/2004Z TNM27/1919Z
от 200300
ветер 360 - 03 порывы 12 м/с вид. 10 км обл. разбросанная 900 м кучево-дождевая обл. значительная 1200 м

Фактическая погода UHSS 191900Z
ветер 090 - 01 м/с 6000 2600N слаб. ливневой снег обл. значительная 1200 м кучево-дождевая темп-ра -10 точка росы -11 Pмин 1015 гПа R01/490542
в ближайшие 2 часа без изменений
дополнительная информация: Ро 760 /1013

Прогноз погоды UHSS 191700Z 1918/2024
ветер 040 - 03 м/с вид. 5000 м слаб. ливневой снег обл. значительная 600 м кучево-дождевая обл. значительная 3000 м
временами 1918/2009 вид. 0700 м сильн. ливневой снег обл. значительная 180 м обл. значительная 450 м кучево-дождевая
изменение 2009/2011 вид. 10 км обл. значительная 900 м кучево-дождевая

Фактическая погода UHWW 191900Z
ветер 330 - 04 м/с вид. 7000 м нет существенной облачности темп-ра -13 точка росы -18 Pмин 1021 гПа R25L/0///70
в ближайшие 2 часа без изменений
дополнительная информация: Ро 764

Прогноз погоды UHWW 191655Z 1918/2018
ветер 350 - 03 м/с вид. 2100 м мгла обл. значительная 210 м обл. значительная 360 м кучево-дождевая
от 200300
ветер 360 - 03 м/с вид. 10 км обл. значительная 600 м кучево-дождевая
временами 2003/2012
ветер 350 - 07 порывы 12 м/с

Новости сайта

02.10.2013

Напоминаем, что на нашем новом сайте вы можете получить высокодетализированные прогнозы погоды по пунктам России, СНГ и мира (включающие важные для авиации метеовеличины, такие как направление и скорость ветра, видимость, явления погоды, количество и форма облачности, нижняя и верхняя граница облачности), а также ознакомиться с разнообразными материалами по авиационной метеорологии и подборкой полезных ссылок на эту тему.

Сайт Метеоцентр.Азия посвящён разработке технологий оптимизации авиаметеорологического обслуживания, включая проектирование и перспективное создание нескольких автоматизированных авиаметеорологических систем:
- система выпуска высокодетальных прогностических карт явлений погоды для нижнего воздушного пространства по России и ближнему зарубежью;
- система верификации прогнозов TAF (выпускаемых синоптиками официальных АМСГ РФ и ближнего зарубежья) и AUTOTAF (выпускаемых сайтом Метеоцентр.Азия) - выявление ошибок, онлайн-сопоставление с фактической погодой METAR, автоматическое внесение коррективов в прогнозы при резком отклонении фактической погоды от прогноза, подсчёт оправдываемости прогнозов по элементам и в целом;
- система обработки, анализа и отображения авиаметеорологической информации для применения провайдерами метеорологической информации.



При копировании или ином использовании любых материалов данного сайта ссылка на © meteocenter.net обязательна.